Portada
METAR-TAF:

METAR-TAF

Aeroports :

Cascais, Portugal

latitud: 38-43-32N, longitud: 009-21-19W, altitud: 99 m

Observació

L'informe es va fer fa 18 minuts, a les 17:30 UTC
Vent 9 kt del Nord
Temperatura 22°C
Humitat 65%
Pressió 1012 hPa
Visibilitat 10 km o més
Escasses núvols a una alçada de 1600 ft
Núvols disperses a una alçada de 3200 ft

METAR: LPCS 191730Z 35009KT 9999 FEW016 SCT032 22/15 Q1012

Hora: 18:48 (17:48 UTC)

Pronòstic

L'informe es va fer fa 3 hores i 48 minuts, a les 14:00 UTC
Pronòstic vàlid del 19 a les 15 UTC al 19 a les 24 UTC
Vent 10 kt del Est
Visibilitat 10 km o més
Núvols disperses a una alçada de 2500 ft
Evolucionant progressivament
l' 19 a les 15 UTC al 19 a les 18 UTC
Vent 8 kt del Nord/Nord-Est
Evolucionant progressivament
l' 19 a les 19 UTC al 19 a les 21 UTC
Vent 3 kt amb direcció variable
Escasses núvols a una alçada de 1800 ft

TAF: LPCS 191400Z 1915/1924 08010KT 9999 SCT025 BECMG 1915/1918 02008KT BECMG 1919/1921 VRB03KT FEW018

Observacions i pronòstics meteorològics de més de 4000 aeroports (METAR i TAF).

Les estacions disponibles són els punts grocs i vermells al mapa.

Posi el ratolí al punt desitjat per veure el nom de l'estació.

Feu clic per veure les observacions i els pronòstics meteorològics.

Per canviar el mapa: feu clic els botons verds amb una creu de color negre per apropar; al botó verd amb un guió per allunyar la imatge; o en les fletxes verdes per a mapes adjacents.


METAR-TAF: